Time;durP1;ratioP1;P1;durP2;ratioP2;P2;SDS_P1;SDS_P2;PMS_P1;PMS_P2;Temp;Humidity;BMP_temperature;BMP_pressure;BME280_temperature;BME280_humidity;BME280_pressure;Samples;Min_cycle;Max_cycle;Signal;HPM_P1;HPM_P2
2024/01/08 00:01:12;;;;;;;6.95;3.55;;;;;;;;;;5067569;28;20592;-74
2024/01/08 00:03:38;;;;;;;5.90;3.72;;;;;;;;;;5087630;28;20484;-74
2024/01/08 00:06:05;;;;;;;5.90;4.00;;;;;;;;;;5059108;28;20044;-74
2024/01/08 00:08:31;;;;;;;8.00;4.22;;;;;;;;;;5085992;28;20058;-74
2024/01/08 00:10:57;;;;;;;7.53;4.22;;;;;;;;;;5078143;28;20040;-74
2024/01/08 00:13:23;;;;;;;6.75;4.00;;;;;;;;;;5068854;28;20040;-74
2024/01/08 00:15:49;;;;;;;6.05;4.18;;;;;;;;;;5074412;28;20040;-74
2024/01/08 00:18:15;;;;;;;7.28;4.22;;;;;;;;;;5071580;28;20032;-74
2024/01/08 00:20:42;;;;;;;6.65;4.53;;;;;;;;;;5067181;28;20032;-74
2024/01/08 00:23:08;;;;;;;7.10;3.72;;;;;;;;;;5062965;28;20036;-74
2024/01/08 00:25:34;;;;;;;6.25;3.92;;;;;;;;;;5072941;28;20036;-74
2024/01/08 00:28:00;;;;;;;5.05;3.95;;;;;;;;;;5073322;28;20032;-74
2024/01/08 00:30:27;;;;;;;6.65;4.30;;;;;;;;;;5071096;28;20076;-74
2024/01/08 00:32:53;;;;;;;7.15;4.20;;;;;;;;;;5071395;28;20051;-74
2024/01/08 00:35:19;;;;;;;8.85;3.92;;;;;;;;;;5060692;28;20048;-73
2024/01/08 00:37:45;;;;;;;6.28;4.18;;;;;;;;;;5071523;28;20041;-73
2024/01/08 00:40:11;;;;;;;5.35;3.83;;;;;;;;;;5080618;28;20040;-73
2024/01/08 00:42:38;;;;;;;5.45;3.95;;;;;;;;;;5080133;28;20453;-74
2024/01/08 00:45:04;;;;;;;7.70;4.00;;;;;;;;;;5080070;28;20032;-75
2024/01/08 00:47:30;;;;;;;5.68;4.03;;;;;;;;;;5071422;28;20263;-75
2024/01/08 00:49:56;;;;;;;6.75;4.05;;;;;;;;;;5074356;28;20359;-75
2024/01/08 00:52:23;;;;;;;6.65;4.15;;;;;;;;;;5058705;28;20041;-75
2024/01/08 00:54:49;;;;;;;6.70;3.90;;;;;;;;;;5072923;28;20048;-75
2024/01/08 00:57:15;;;;;;;9.75;4.10;;;;;;;;;;5092460;28;20491;-75
2024/01/08 00:59:42;;;;;;;5.43;4.15;;;;;;;;;;5091761;28;20036;-75
2024/01/08 01:02:08;;;;;;;6.00;3.83;;;;;;;;;;5075516;28;20442;-75
2024/01/08 01:04:34;;;;;;;7.47;4.22;;;;;;;;;;5084954;28;20127;-75
2024/01/08 01:07:00;;;;;;;5.38;4.40;;;;;;;;;;5079565;28;20494;-75
2024/01/08 01:09:26;;;;;;;8.10;3.80;;;;;;;;;;5076839;28;20032;-75
2024/01/08 01:11:52;;;;;;;7.97;4.10;;;;;;;;;;5063045;28;20047;-75
2024/01/08 01:14:18;;;;;;;9.25;4.13;;;;;;;;;;5086417;28;20039;-75
2024/01/08 01:16:44;;;;;;;5.60;3.63;;;;;;;;;;5075015;28;20043;-73
2024/01/08 01:19:10;;;;;;;6.18;4.10;;;;;;;;;;5074768;28;20504;-74
2024/01/08 01:21:36;;;;;;;7.63;4.32;;;;;;;;;;5041643;28;20040;-73
2024/01/08 01:24:04;;;;;;;5.93;4.03;;;;;;;;;;5085513;28;20028;-74
2024/01/08 01:26:31;;;;;;;8.55;4.35;;;;;;;;;;5058065;28;20036;-74
2024/01/08 01:28:57;;;;;;;7.35;3.88;;;;;;;;;;5081191;28;20032;-75
2024/01/08 01:31:23;;;;;;;9.00;3.97;;;;;;;;;;5084612;28;20557;-76
2024/01/08 01:33:49;;;;;;;8.73;3.72;;;;;;;;;;5059048;28;20572;-76
2024/01/08 01:36:15;;;;;;;6.63;4.05;;;;;;;;;;5057842;28;20047;-76
2024/01/08 01:38:41;;;;;;;5.07;4.00;;;;;;;;;;5071521;28;20032;-76
2024/01/08 01:41:07;;;;;;;10.07;3.90;;;;;;;;;;5057983;28;20081;-76
2024/01/08 01:43:34;;;;;;;11.88;4.15;;;;;;;;;;5058232;28;20488;-76
2024/01/08 01:46:04;;;;;;;10.13;4.38;;;;;;;;;;5078532;28;20053;-76
2024/01/08 01:48:30;;;;;;;7.03;3.70;;;;;;;;;;5074618;28;20066;-76
2024/01/08 01:50:57;;;;;;;6.45;3.75;;;;;;;;;;5082131;28;20062;-76
2024/01/08 01:53:23;;;;;;;6.18;3.88;;;;;;;;;;5087727;28;20036;-76
2024/01/08 01:55:50;;;;;;;5.28;3.60;;;;;;;;;;5075358;28;20153;-76
2024/01/08 01:58:16;;;;;;;7.85;3.90;;;;;;;;;;5092146;28;20036;-76
2024/01/08 02:00:42;;;;;;;7.68;4.00;;;;;;;;;;5075088;28;20040;-76
2024/01/08 02:03:09;;;;;;;5.15;3.80;;;;;;;;;;5061273;28;20392;-76
2024/01/08 02:05:35;;;;;;;6.40;3.63;;;;;;;;;;5071495;28;20488;-76
2024/01/08 02:08:01;;;;;;;8.73;3.90;;;;;;;;;;5079948;28;20037;-76
2024/01/08 02:10:27;;;;;;;7.93;4.10;;;;;;;;;;5057257;28;20481;-75
2024/01/08 02:12:54;;;;;;;7.25;4.10;;;;;;;;;;5073496;28;20194;-74
2024/01/08 02:15:20;;;;;;;11.05;4.25;;;;;;;;;;5088498;28;20069;-74
2024/01/08 02:17:46;;;;;;;5.68;3.78;;;;;;;;;;5067933;28;20532;-73
2024/01/08 02:20:12;;;;;;;6.90;4.15;;;;;;;;;;5056116;28;20393;-73
2024/01/08 02:22:42;;;;;;;6.63;3.70;;;;;;;;;;5074843;28;20067;-75
2024/01/08 02:25:11;;;;;;;5.90;3.95;;;;;;;;;;5056768;28;20032;-75
2024/01/08 02:27:37;;;;;;;7.00;4.00;;;;;;;;;;5073005;28;20384;-75
2024/01/08 02:30:04;;;;;;;6.97;4.20;;;;;;;;;;5080029;28;20039;-75
2024/01/08 02:32:30;;;;;;;6.80;4.00;;;;;;;;;;5089181;28;20047;-75
2024/01/08 02:34:56;;;;;;;8.40;4.13;;;;;;;;;;5072134;28;20209;-75
2024/01/08 02:37:23;;;;;;;8.32;4.40;;;;;;;;;;5078726;28;20032;-75
2024/01/08 02:39:49;;;;;;;11.45;4.45;;;;;;;;;;5039762;28;20044;-75
2024/01/08 02:42:17;;;;;;;9.88;4.35;;;;;;;;;;5082246;28;20082;-75
2024/01/08 02:44:43;;;;;;;7.20;4.78;;;;;;;;;;5077020;28;20088;-76
2024/01/08 02:47:09;;;;;;;5.50;3.97;;;;;;;;;;5057657;28;20055;-76
2024/01/08 02:49:35;;;;;;;6.00;4.22;;;;;;;;;;5065353;28;20494;-75
2024/01/08 02:52:01;;;;;;;7.70;4.85;;;;;;;;;;5090243;28;20054;-76
2024/01/08 02:54:27;;;;;;;8.13;4.50;;;;;;;;;;5081111;28;20052;-76
2024/01/08 02:56:53;;;;;;;6.28;4.50;;;;;;;;;;5074470;28;20178;-76
2024/01/08 02:59:20;;;;;;;8.55;4.72;;;;;;;;;;5062469;28;20479;-76
2024/01/08 03:01:46;;;;;;;10.57;4.25;;;;;;;;;;5091573;28;20142;-76
2024/01/08 03:04:12;;;;;;;11.60;4.50;;;;;;;;;;5069285;28;20036;-76
2024/01/08 03:06:38;;;;;;;6.00;4.15;;;;;;;;;;5070388;28;20521;-76
2024/01/08 03:09:04;;;;;;;6.78;4.10;;;;;;;;;;5055922;28;20047;-76
2024/01/08 03:11:30;;;;;;;6.00;3.90;;;;;;;;;;5075640;28;20054;-76
2024/01/08 03:13:56;;;;;;;8.05;4.72;;;;;;;;;;5074009;28;20044;-76
2024/01/08 03:16:22;;;;;;;5.85;3.95;;;;;;;;;;5072827;28;20039;-76
2024/01/08 03:18:48;;;;;;;7.95;4.22;;;;;;;;;;5072518;28;20530;-76
2024/01/08 03:21:14;;;;;;;5.93;4.00;;;;;;;;;;5074833;28;20108;-76
2024/01/08 03:23:41;;;;;;;7.63;4.20;;;;;;;;;;5072525;28;20048;-76
2024/01/08 03:26:07;;;;;;;6.00;4.00;;;;;;;;;;5073660;28;20105;-76
2024/01/08 03:28:33;;;;;;;6.38;4.15;;;;;;;;;;5072599;28;20131;-76
2024/01/08 03:31:01;;;;;;;7.43;4.00;;;;;;;;;;5078922;28;20063;-76
2024/01/08 03:33:28;;;;;;;6.57;4.20;;;;;;;;;;5084425;28;20481;-76
2024/01/08 03:35:55;;;;;;;6.95;4.05;;;;;;;;;;5072140;28;20051;-76
2024/01/08 03:38:21;;;;;;;9.50;4.20;;;;;;;;;;5056905;28;20469;-76
2024/01/08 03:40:47;;;;;;;6.22;4.68;;;;;;;;;;5080403;28;20036;-76
2024/01/08 03:43:13;;;;;;;5.82;4.30;;;;;;;;;;5072010;28;20136;-76
2024/01/08 03:45:39;;;;;;;6.95;4.63;;;;;;;;;;5067051;28;20048;-76
2024/01/08 03:48:05;;;;;;;6.50;4.15;;;;;;;;;;5072010;28;20036;-76
2024/01/08 03:50:33;;;;;;;9.38;4.60;;;;;;;;;;5071659;28;20130;-76
2024/01/08 03:52:59;;;;;;;6.45;4.32;;;;;;;;;;5079312;28;20113;-76
2024/01/08 03:55:28;;;;;;;7.65;4.68;;;;;;;;;;5083497;28;20158;-76
2024/01/08 03:57:54;;;;;;;7.03;4.63;;;;;;;;;;5073014;28;20037;-76
2024/01/08 04:00:20;;;;;;;6.72;4.85;;;;;;;;;;5081841;28;20480;-76
2024/01/08 04:02:46;;;;;;;6.70;4.90;;;;;;;;;;5088466;28;20036;-76
2024/01/08 04:05:12;;;;;;;8.15;4.50;;;;;;;;;;5071629;28;20086;-76
2024/01/08 04:07:38;;;;;;;10.80;4.68;;;;;;;;;;5072665;28;20168;-76
2024/01/08 04:10:05;;;;;;;8.18;5.10;;;;;;;;;;5054489;28;20396;-76
2024/01/08 04:12:31;;;;;;;7.50;5.07;;;;;;;;;;5071693;28;20036;-76
2024/01/08 04:14:57;;;;;;;7.70;4.57;;;;;;;;;;5074195;28;20036;-76
2024/01/08 04:17:26;;;;;;;6.43;4.72;;;;;;;;;;5071293;28;20068;-76
2024/01/08 04:19:52;;;;;;;6.60;5.05;;;;;;;;;;5055603;28;21403;-76
2024/01/08 04:22:18;;;;;;;8.63;4.93;;;;;;;;;;5039633;28;20040;-76
2024/01/08 04:24:44;;;;;;;8.65;4.38;;;;;;;;;;5070973;28;20033;-76
2024/01/08 04:27:10;;;;;;;7.60;4.82;;;;;;;;;;5063976;28;20408;-76
2024/01/08 04:29:36;;;;;;;9.25;4.68;;;;;;;;;;5071465;28;20047;-76
2024/01/08 04:32:03;;;;;;;7.95;4.95;;;;;;;;;;5074796;28;20441;-76
2024/01/08 04:34:29;;;;;;;8.00;4.78;;;;;;;;;;5054611;28;20127;-76
2024/01/08 04:36:55;;;;;;;7.70;5.07;;;;;;;;;;5084763;28;20036;-76
2024/01/08 04:39:21;;;;;;;8.98;5.15;;;;;;;;;;5053628;28;20185;-76
2024/01/08 04:41:47;;;;;;;9.00;5.53;;;;;;;;;;5068656;28;20032;-76
2024/01/08 04:44:13;;;;;;;8.02;5.38;;;;;;;;;;5061023;28;20396;-76
2024/01/08 04:46:42;;;;;;;6.20;4.47;;;;;;;;;;5070638;28;20052;-76
2024/01/08 04:49:08;;;;;;;8.65;5.22;;;;;;;;;;5071683;28;20490;-76
2024/01/08 04:51:34;;;;;;;7.35;5.05;;;;;;;;;;5084237;28;20066;-77
2024/01/08 04:54:00;;;;;;;11.88;5.30;;;;;;;;;;5055613;28;20044;-77
2024/01/08 04:56:30;;;;;;;8.80;4.97;;;;;;;;;;5089340;28;20048;-76
2024/01/08 04:58:56;;;;;;;7.22;5.25;;;;;;;;;;5060900;28;20113;-75
2024/01/08 05:01:22;;;;;;;8.50;5.20;;;;;;;;;;5058075;28;20408;-74
2024/01/08 05:03:48;;;;;;;11.30;5.68;;;;;;;;;;5039122;28;20037;-75
2024/01/08 05:06:15;;;;;;;8.00;5.22;;;;;;;;;;5054525;28;20045;-75
2024/01/08 05:08:41;;;;;;;8.18;5.15;;;;;;;;;;5076168;28;20036;-75
2024/01/08 05:11:07;;;;;;;8.25;5.43;;;;;;;;;;5037931;28;20460;-75
2024/01/08 05:13:34;;;;;;;8.23;5.13;;;;;;;;;;5059623;28;20044;-75
2024/01/08 05:16:01;;;;;;;11.38;5.75;;;;;;;;;;5056302;28;20032;-74
2024/01/08 05:18:27;;;;;;;8.48;5.15;;;;;;;;;;5093364;28;20062;-75
2024/01/08 05:20:53;;;;;;;8.85;4.90;;;;;;;;;;5081940;28;20048;-75
2024/01/08 05:23:19;;;;;;;7.03;4.88;;;;;;;;;;5080971;28;20369;-77
2024/01/08 05:25:45;;;;;;;6.72;4.32;;;;;;;;;;5072750;28;20169;-76
2024/01/08 05:28:11;;;;;;;8.45;4.40;;;;;;;;;;5083560;28;20044;-76
2024/01/08 05:30:37;;;;;;;6.68;4.10;;;;;;;;;;5066725;28;20044;-76
2024/01/08 05:33:04;;;;;;;8.13;4.20;;;;;;;;;;5062022;28;20056;-76
2024/01/08 05:35:30;;;;;;;5.68;3.65;;;;;;;;;;5072883;28;20131;-76
2024/01/08 05:37:57;;;;;;;9.18;3.95;;;;;;;;;;5058074;28;20041;-76
2024/01/08 05:40:23;;;;;;;6.85;3.88;;;;;;;;;;5074336;28;20044;-76
2024/01/08 05:42:49;;;;;;;5.72;3.80;;;;;;;;;;5074379;28;20044;-76
2024/01/08 05:45:15;;;;;;;10.20;3.40;;;;;;;;;;5058949;28;20063;-76
2024/01/08 05:47:43;;;;;;;6.90;3.65;;;;;;;;;;5074809;28;20033;-75
2024/01/08 05:50:09;;;;;;;7.95;3.40;;;;;;;;;;5074351;28;20044;-75
2024/01/08 05:52:35;;;;;;;7.88;3.13;;;;;;;;;;5057333;28;20043;-75
2024/01/08 05:55:02;;;;;;;6.70;3.70;;;;;;;;;;5073983;28;20052;-75
2024/01/08 05:57:28;;;;;;;7.10;3.25;;;;;;;;;;5074034;28;20036;-75
2024/01/08 05:59:54;;;;;;;7.32;3.15;;;;;;;;;;5073876;28;20044;-75
2024/01/08 06:02:20;;;;;;;5.47;3.58;;;;;;;;;;5074047;28;20139;-75
2024/01/08 06:04:46;;;;;;;6.88;3.53;;;;;;;;;;5073809;28;20488;-75
2024/01/08 06:07:12;;;;;;;6.90;3.83;;;;;;;;;;5074137;28;20059;-75
2024/01/08 06:09:38;;;;;;;4.53;3.20;;;;;;;;;;5073368;28;20052;-75
2024/01/08 06:12:04;;;;;;;6.72;3.42;;;;;;;;;;5073762;28;20481;-75
2024/01/08 06:14:30;;;;;;;8.00;3.85;;;;;;;;;;5057033;28;20082;-75
2024/01/08 06:16:56;;;;;;;8.65;3.42;;;;;;;;;;5073639;28;20097;-74
2024/01/08 06:19:22;;;;;;;6.15;3.58;;;;;;;;;;5073880;28;20337;-75
2024/01/08 06:21:49;;;;;;;6.43;3.60;;;;;;;;;;5073929;28;20114;-75
2024/01/08 06:24:15;;;;;;;8.70;3.42;;;;;;;;;;5093106;28;20044;-75
2024/01/08 06:26:41;;;;;;;5.97;3.42;;;;;;;;;;5082308;28;20079;-75
2024/01/08 06:29:08;;;;;;;10.63;3.67;;;;;;;;;;5057085;28;20105;-76
2024/01/08 06:31:34;;;;;;;6.82;4.10;;;;;;;;;;5073391;28;20047;-76
2024/01/08 06:34:01;;;;;;;8.60;3.75;;;;;;;;;;5073320;28;20178;-75
2024/01/08 06:36:27;;;;;;;5.43;3.30;;;;;;;;;;5073567;28;20181;-74
2024/01/08 06:38:53;;;;;;;5.72;3.72;;;;;;;;;;5073688;28;20032;-72
2024/01/08 06:41:19;;;;;;;6.50;3.92;;;;;;;;;;5056521;28;20040;-75
2024/01/08 06:43:45;;;;;;;10.18;4.22;;;;;;;;;;5056872;28;20043;-76
2024/01/08 06:46:11;;;;;;;7.57;3.63;;;;;;;;;;5071645;28;20044;-76
2024/01/08 06:48:38;;;;;;;6.45;3.40;;;;;;;;;;5073429;28;20443;-77
2024/01/08 06:51:04;;;;;;;5.65;3.67;;;;;;;;;;5073466;28;20048;-77
2024/01/08 06:53:30;;;;;;;7.32;4.20;;;;;;;;;;5056445;28;20048;-76
2024/01/08 06:55:56;;;;;;;6.03;3.78;;;;;;;;;;5072765;28;20075;-75
2024/01/08 06:58:22;;;;;;;5.65;3.60;;;;;;;;;;5072548;28;20123;-75
2024/01/08 07:00:48;;;;;;;5.72;3.40;;;;;;;;;;5072534;28;20033;-73
2024/01/08 07:03:15;;;;;;;7.65;3.72;;;;;;;;;;5089951;28;20396;-74
2024/01/08 07:05:42;;;;;;;7.80;3.80;;;;;;;;;;5073196;28;20090;-75
2024/01/08 07:08:08;;;;;;;7.30;3.15;;;;;;;;;;5072794;28;20044;-75
2024/01/08 07:10:34;;;;;;;7.05;3.58;;;;;;;;;;5072716;28;20381;-75
2024/01/08 07:13:01;;;;;;;6.40;4.03;;;;;;;;;;5072697;28;20045;-75
2024/01/08 07:15:37;;;;;;;6.00;3.55;;;;;;;;;;5072687;28;20574;-74
2024/01/08 07:18:03;;;;;;;7.07;3.53;;;;;;;;;;5056433;28;20044;-75
2024/01/08 07:20:29;;;;;;;6.75;3.67;;;;;;;;;;5072974;28;20486;-76
2024/01/08 07:22:56;;;;;;;10.05;3.70;;;;;;;;;;5081387;28;20050;-76
2024/01/08 07:25:22;;;;;;;7.05;3.75;;;;;;;;;;5076128;28;20047;-77
2024/01/08 07:27:48;;;;;;;6.00;3.95;;;;;;;;;;5093192;28;20043;-76
2024/01/08 07:30:14;;;;;;;6.68;3.38;;;;;;;;;;5075644;28;20039;-75
2024/01/08 07:32:40;;;;;;;6.68;3.42;;;;;;;;;;5079749;28;20036;-74
2024/01/08 07:35:06;;;;;;;7.80;3.80;;;;;;;;;;5056061;28;20098;-77
2024/01/08 07:37:33;;;;;;;6.47;3.88;;;;;;;;;;5059491;28;20048;-77
2024/01/08 07:39:59;;;;;;;8.35;3.58;;;;;;;;;;5070828;28;20094;-77
2024/01/08 07:42:25;;;;;;;6.72;3.40;;;;;;;;;;5059351;28;20128;-77
2024/01/08 07:44:51;;;;;;;4.57;3.20;;;;;;;;;;5078018;28;20098;-77
2024/01/08 07:47:17;;;;;;;5.90;3.30;;;;;;;;;;5074107;28;20044;-77
2024/01/08 07:49:43;;;;;;;6.15;3.67;;;;;;;;;;5075874;28;20036;-77
2024/01/08 07:52:09;;;;;;;11.65;3.75;;;;;;;;;;5072761;28;20040;-77
2024/01/08 07:54:35;;;;;;;11.35;3.78;;;;;;;;;;5076857;28;20131;-78
2024/01/08 07:57:02;;;;;;;4.78;3.05;;;;;;;;;;5056045;28;20132;-77
2024/01/08 07:59:28;;;;;;;4.88;3.30;;;;;;;;;;5073078;28;20036;-77
2024/01/08 08:01:54;;;;;;;6.35;3.88;;;;;;;;;;5077633;28;20036;-77
2024/01/08 08:04:20;;;;;;;7.60;3.20;;;;;;;;;;5056666;28;20079;-77
2024/01/08 08:06:46;;;;;;;7.97;3.33;;;;;;;;;;5054147;28;20446;-77
2024/01/08 08:09:12;;;;;;;7.43;3.80;;;;;;;;;;5039548;28;20044;-77
2024/01/08 08:11:39;;;;;;;9.88;4.22;;;;;;;;;;5089692;28;20131;-77
2024/01/08 08:14:05;;;;;;;8.63;3.13;;;;;;;;;;5076596;28;20116;-78
2024/01/08 08:16:32;;;;;;;4.40;2.90;;;;;;;;;;5075007;28;20047;-78
2024/01/08 08:18:59;;;;;;;6.30;3.42;;;;;;;;;;5073501;28;20043;-78
2024/01/08 08:21:25;;;;;;;7.93;3.45;;;;;;;;;;5062411;28;20093;-78
2024/01/08 08:23:51;;;;;;;5.50;3.30;;;;;;;;;;5069728;28;20123;-78
2024/01/08 08:26:18;;;;;;;9.95;4.50;;;;;;;;;;5066069;28;20040;-78
2024/01/08 08:28:44;;;;;;;9.73;3.58;;;;;;;;;;5068510;28;20036;-78
2024/01/08 08:31:10;;;;;;;5.68;3.72;;;;;;;;;;5083925;28;20087;-78
2024/01/08 08:33:38;;;;;;;13.35;4.30;;;;;;;;;;5073941;28;20037;-78
2024/01/08 08:36:04;;;;;;;8.13;3.63;;;;;;;;;;5048520;28;20197;-78
2024/01/08 08:38:30;;;;;;;8.55;3.65;;;;;;;;;;5061156;28;20032;-78
2024/01/08 08:40:56;;;;;;;6.50;3.17;;;;;;;;;;5083700;28;20454;-78
2024/01/08 08:43:22;;;;;;;7.60;3.83;;;;;;;;;;5063779;28;20043;-86
2024/01/08 08:45:48;;;;;;;6.53;3.30;;;;;;;;;;5072334;28;20040;-77
2024/01/08 08:48:14;;;;;;;9.43;3.40;;;;;;;;;;5059584;28;20040;-84
2024/01/08 08:50:41;;;;;;;8.00;3.70;;;;;;;;;;5055756;28;20527;-78
2024/01/08 08:53:07;;;;;;;6.35;3.50;;;;;;;;;;5054906;28;20089;-78
2024/01/08 08:55:33;;;;;;;7.75;3.53;;;;;;;;;;5054213;28;20045;-78
2024/01/08 08:57:59;;;;;;;9.77;3.97;;;;;;;;;;5071906;28;20453;-78
2024/01/08 09:00:25;;;;;;;6.63;3.45;;;;;;;;;;5071168;28;20040;-77
2024/01/08 09:02:52;;;;;;;9.45;3.72;;;;;;;;;;5071552;28;20337;-76
2024/01/08 09:05:18;;;;;;;9.52;3.80;;;;;;;;;;5054567;28;20120;-76
2024/01/08 09:07:45;;;;;;;5.22;3.63;;;;;;;;;;5054580;28;20032;-76
2024/01/08 09:10:11;;;;;;;5.25;3.00;;;;;;;;;;5056267;28;20498;-78
2024/01/08 09:12:37;;;;;;;6.22;3.00;;;;;;;;;;5058475;28;20032;-76
2024/01/08 09:15:03;;;;;;;10.98;3.20;;;;;;;;;;5075147;28;20086;-75
2024/01/08 09:17:31;;;;;;;6.18;3.20;;;;;;;;;;5075495;28;20036;-76
2024/01/08 09:19:57;;;;;;;3.95;2.90;;;;;;;;;;5049817;28;20098;-77
2024/01/08 09:22:23;;;;;;;9.52;3.25;;;;;;;;;;5058280;28;20477;-76
2024/01/08 09:24:50;;;;;;;9.38;4.18;;;;;;;;;;5058436;28;20048;-75
2024/01/08 09:27:16;;;;;;;8.77;3.20;;;;;;;;;;5058213;28;20043;-75
2024/01/08 09:29:42;;;;;;;6.20;2.67;;;;;;;;;;5058049;28;20098;-75
2024/01/08 09:32:08;;;;;;;6.18;2.60;;;;;;;;;;5074656;28;20044;-75
2024/01/08 09:34:34;;;;;;;6.32;2.67;;;;;;;;;;5074666;28;20111;-76
2024/01/08 09:37:00;;;;;;;4.53;2.83;;;;;;;;;;5058104;28;20127;-74
2024/01/08 09:39:26;;;;;;;8.70;2.63;;;;;;;;;;5074874;28;20436;-74
2024/01/08 09:41:54;;;;;;;5.88;3.20;;;;;;;;;;5074813;28;20036;-75
2024/01/08 09:44:21;;;;;;;6.80;2.63;;;;;;;;;;5074648;28;20076;-74
2024/01/08 09:46:50;;;;;;;8.27;3.03;;;;;;;;;;5073976;28;20119;-74
2024/01/08 09:49:18;;;;;;;6.20;3.22;;;;;;;;;;5057692;28;20503;-74
2024/01/08 09:51:44;;;;;;;5.70;2.92;;;;;;;;;;5058156;28;20511;-75
2024/01/08 09:54:10;;;;;;;6.88;2.60;;;;;;;;;;5074206;28;20045;-74
2024/01/08 09:56:36;;;;;;;6.80;3.00;;;;;;;;;;5057425;28;20086;-74
2024/01/08 09:59:02;;;;;;;10.80;2.90;;;;;;;;;;5074475;28;20040;-74
2024/01/08 10:01:29;;;;;;;4.13;3.25;;;;;;;;;;5074215;28;20043;-74
2024/01/08 10:03:55;;;;;;;9.10;3.40;;;;;;;;;;5041165;28;20389;-74
2024/01/08 10:06:22;;;;;;;4.55;2.75;;;;;;;;;;5057326;28;20049;-74
2024/01/08 10:08:48;;;;;;;3.10;2.40;;;;;;;;;;5057868;28;20043;-74
2024/01/08 10:11:15;;;;;;;8.50;2.95;;;;;;;;;;5057355;28;20093;-74
2024/01/08 10:13:41;;;;;;;6.70;3.00;;;;;;;;;;5073497;28;20051;-74
2024/01/08 10:16:08;;;;;;;4.32;2.50;;;;;;;;;;5057080;28;20076;-74
2024/01/08 10:18:34;;;;;;;6.45;3.28;;;;;;;;;;5074025;28;20046;-75
2024/01/08 10:21:13;;;;;;;5.43;3.10;;;;;;;;;;5073960;28;20103;-75
2024/01/08 10:23:39;;;;;;;9.27;2.80;;;;;;;;;;5057338;28;20380;-75
2024/01/08 10:26:06;;;;;;;6.63;2.80;;;;;;;;;;5072932;28;20098;-75
2024/01/08 10:28:36;;;;;;;9.43;3.13;;;;;;;;;;5055169;28;20048;-75
2024/01/08 10:31:03;;;;;;;7.72;2.85;;;;;;;;;;5056683;28;20041;-75
2024/01/08 10:33:29;;;;;;;5.38;2.85;;;;;;;;;;5073260;28;20041;-75
2024/01/08 10:35:56;;;;;;;8.77;3.42;;;;;;;;;;5070794;28;20075;-75
2024/01/08 10:38:22;;;;;;;5.18;2.92;;;;;;;;;;5040386;28;20044;-74
2024/01/08 10:40:48;;;;;;;9.27;3.60;;;;;;;;;;5057077;28;20037;-75
2024/01/08 10:43:14;;;;;;;7.30;2.70;;;;;;;;;;5040090;28;20085;-75
2024/01/08 10:45:40;;;;;;;5.30;2.75;;;;;;;;;;5040087;28;20488;-75
2024/01/08 10:48:28;;;;;;;13.10;3.17;;;;;;;;;;5069037;28;20426;-74
2024/01/08 10:50:54;;;;;;;11.48;3.33;;;;;;;;;;5062518;28;20044;-74
2024/01/08 10:53:39;;;;;;;8.70;3.28;;;;;;;;;;5075898;28;20115;-74
2024/01/08 10:56:07;;;;;;;5.90;2.72;;;;;;;;;;5084575;28;20421;-74
2024/01/08 10:58:37;;;;;;;4.93;2.58;;;;;;;;;;5072971;28;20135;-74
2024/01/08 11:01:03;;;;;;;7.03;3.00;;;;;;;;;;5058807;28;20036;-74
2024/01/08 11:03:30;;;;;;;5.13;3.15;;;;;;;;;;5065304;28;20063;-74
2024/01/08 11:05:57;;;;;;;6.53;2.90;;;;;;;;;;5064490;28;20047;-74
2024/01/08 11:08:24;;;;;;;6.32;3.15;;;;;;;;;;5080379;28;20040;-74
2024/01/08 11:10:51;;;;;;;5.20;2.83;;;;;;;;;;5084479;28;20048;-75
2024/01/08 11:13:17;;;;;;;6.50;3.10;;;;;;;;;;5081974;28;20128;-74
2024/01/08 11:15:47;;;;;;;6.25;3.08;;;;;;;;;;5051384;28;20124;-74
2024/01/08 11:18:26;;;;;;;7.63;3.35;;;;;;;;;;5075294;28;20358;-74
2024/01/08 11:20:53;;;;;;;6.35;3.72;;;;;;;;;;5080187;28;20365;-75
2024/01/08 11:23:33;;;;;;;5.38;2.75;;;;;;;;;;5067714;28;20036;-75
2024/01/08 11:26:00;;;;;;;5.20;3.03;;;;;;;;;;5068349;28;20044;-75
2024/01/08 11:28:26;;;;;;;5.63;3.00;;;;;;;;;;5055978;28;20037;-76
2024/01/08 11:31:06;;;;;;;3.80;3.08;;;;;;;;;;5075402;28;20387;-75
2024/01/08 11:33:45;;;;;;;6.53;3.15;;;;;;;;;;5077353;28;20041;-75
2024/01/08 11:36:17;;;;;;;6.35;3.15;;;;;;;;;;5073893;28;20029;-75
2024/01/08 11:38:43;;;;;;;;;;;;;;;;;;5074058;28;20036;-75
2024/01/08 11:41:12;;;;;;;5.80;3.20;;;;;;;;;;5084091;28;20011;-74
2024/01/08 11:43:38;;;;;;;3.72;2.85;;;;;;;;;;5047489;28;20112;-75
2024/01/08 11:46:04;;;;;;;5.10;3.00;;;;;;;;;;5058955;28;20037;-75
2024/01/08 11:48:30;;;;;;;5.05;3.20;;;;;;;;;;5081061;28;20422;-77
2024/01/08 11:50:57;;;;;;;5.80;3.10;;;;;;;;;;5066255;28;20032;-77
2024/01/08 11:53:23;;;;;;;5.35;2.88;;;;;;;;;;5062845;28;20476;-77
2024/01/08 11:55:49;;;;;;;4.93;3.00;;;;;;;;;;5068922;28;20056;-76
2024/01/08 11:58:15;;;;;;;4.53;2.80;;;;;;;;;;5049280;28;20044;-76
2024/01/08 12:00:42;;;;;;;6.57;3.35;;;;;;;;;;5067952;28;20440;-76
2024/01/08 12:03:08;;;;;;;4.70;2.80;;;;;;;;;;5065062;28;20036;-77
2024/01/08 12:05:35;;;;;;;5.82;3.03;;;;;;;;;;5080048;28;20055;-77
2024/01/08 12:08:03;;;;;;;4.45;2.65;;;;;;;;;;5087973;28;20426;-75
2024/01/08 12:10:30;;;;;;;5.88;2.85;;;;;;;;;;5061455;28;20040;-75
2024/01/08 12:12:56;;;;;;;5.47;3.13;;;;;;;;;;5056986;28;20074;-74
2024/01/08 12:15:23;;;;;;;4.25;3.05;;;;;;;;;;5071252;28;20132;-75
2024/01/08 12:17:50;;;;;;;7.75;3.05;;;;;;;;;;5071410;28;20040;-74
2024/01/08 12:20:16;;;;;;;6.95;3.42;;;;;;;;;;5074972;28;20485;-74
2024/01/08 12:22:43;;;;;;;5.75;3.08;;;;;;;;;;5055245;28;20040;-74
2024/01/08 12:25:11;;;;;;;5.05;3.10;;;;;;;;;;5073312;28;20374;-74
2024/01/08 12:27:38;;;;;;;4.28;3.00;;;;;;;;;;5054909;28;20041;-74
2024/01/08 12:30:04;;;;;;;5.40;3.10;;;;;;;;;;5071926;28;20041;-74
2024/01/08 12:32:31;;;;;;;5.72;3.05;;;;;;;;;;5072067;28;20040;-75
2024/01/08 12:35:00;;;;;;;4.97;2.80;;;;;;;;;;5055467;28;20045;-74
2024/01/08 12:37:32;;;;;;;4.25;3.05;;;;;;;;;;5056094;28;20032;-74
2024/01/08 12:39:58;;;;;;;5.75;3.25;;;;;;;;;;5064000;28;20063;-75
2024/01/08 12:42:26;;;;;;;5.32;3.03;;;;;;;;;;5074093;28;20039;-74
2024/01/08 12:44:53;;;;;;;6.00;3.15;;;;;;;;;;5083012;28;20037;-75
2024/01/08 12:47:20;;;;;;;3.97;3.22;;;;;;;;;;5062348;28;20268;-76
2024/01/08 12:49:46;;;;;;;6.28;3.53;;;;;;;;;;5076032;28;20044;-76
2024/01/08 12:52:12;;;;;;;6.22;3.30;;;;;;;;;;5075911;28;20032;-76
2024/01/08 12:54:41;;;;;;;4.10;2.97;;;;;;;;;;5075659;28;20397;-76
2024/01/08 12:57:07;;;;;;;6.63;2.90;;;;;;;;;;5055289;28;20095;-76
2024/01/08 12:59:34;;;;;;;4.63;2.72;;;;;;;;;;5050725;28;20041;-76
2024/01/08 13:02:01;;;;;;;8.25;3.58;;;;;;;;;;5075230;28;20127;-76
2024/01/08 13:04:27;;;;;;;7.18;3.60;;;;;;;;;;5075176;28;20392;-76
2024/01/08 13:06:53;;;;;;;6.32;2.90;;;;;;;;;;5092242;28;20521;-76
2024/01/08 13:09:19;;;;;;;5.40;2.55;;;;;;;;;;5058727;28;20044;-77
2024/01/08 13:11:46;;;;;;;4.18;2.88;;;;;;;;;;5075007;28;20040;-77
2024/01/08 13:14:17;;;;;;;6.75;2.90;;;;;;;;;;5074853;28;20127;-77
2024/01/08 13:16:44;;;;;;;6.63;2.80;;;;;;;;;;5075250;28;20032;-76
2024/01/08 13:19:10;;;;;;;5.60;2.70;;;;;;;;;;5074927;28;20496;-76
2024/01/08 13:21:40;;;;;;;6.45;2.70;;;;;;;;;;5075167;28;20380;-76
2024/01/08 13:24:10;;;;;;;6.13;3.05;;;;;;;;;;5074892;28;20481;-76
2024/01/08 13:26:36;;;;;;;5.97;2.95;;;;;;;;;;5075304;28;20055;-76
2024/01/08 13:29:03;;;;;;;6.43;2.95;;;;;;;;;;5075206;28;20079;-76
2024/01/08 13:31:30;;;;;;;5.25;3.03;;;;;;;;;;5074947;28;20121;-76
2024/01/08 13:33:56;;;;;;;6.43;3.38;;;;;;;;;;5074502;28;20041;-76
2024/01/08 13:36:22;;;;;;;5.35;2.80;;;;;;;;;;5074659;28;20036;-76
2024/01/08 13:38:48;;;;;;;7.22;3.75;;;;;;;;;;5054734;28;20497;-77
2024/01/08 13:41:15;;;;;;;6.57;3.17;;;;;;;;;;5054819;28;20107;-77
2024/01/08 13:43:41;;;;;;;4.80;3.08;;;;;;;;;;5054403;28;20048;-77
2024/01/08 13:46:09;;;;;;;7.18;3.15;;;;;;;;;;5054365;28;20128;-77
2024/01/08 13:48:39;;;;;;;6.82;3.10;;;;;;;;;;5037738;28;20493;-77
2024/01/08 13:51:05;;;;;;;8.00;3.10;;;;;;;;;;5055110;28;20133;-77
2024/01/08 13:53:31;;;;;;;5.13;3.35;;;;;;;;;;5054642;28;20404;-77
2024/01/08 13:55:59;;;;;;;5.50;2.80;;;;;;;;;;5053711;28;20045;-77
2024/01/08 13:58:25;;;;;;;7.20;3.08;;;;;;;;;;5037734;28;20045;-77
2024/01/08 14:00:51;;;;;;;6.55;3.60;;;;;;;;;;5037319;28;20037;-77
2024/01/08 14:03:18;;;;;;;5.15;3.17;;;;;;;;;;5054176;28;20558;-77
2024/01/08 14:05:44;;;;;;;8.80;3.58;;;;;;;;;;5045200;28;20037;-77
2024/01/08 14:08:10;;;;;;;5.90;3.15;;;;;;;;;;5057555;28;20044;-77
2024/01/08 14:10:38;;;;;;;7.43;3.25;;;;;;;;;;5090948;28;20052;-77
2024/01/08 14:13:04;;;;;;;7.85;3.70;;;;;;;;;;5074347;28;20098;-78
2024/01/08 14:15:30;;;;;;;8.18;3.50;;;;;;;;;;5091199;28;20047;-77
2024/01/08 14:17:58;;;;;;;7.38;3.90;;;;;;;;;;5074136;28;20502;-77
2024/01/08 14:20:25;;;;;;;4.90;3.45;;;;;;;;;;5057473;28;20119;-77
2024/01/08 14:22:51;;;;;;;6.53;3.10;;;;;;;;;;5081623;28;20055;-77
2024/01/08 14:25:18;;;;;;;6.40;3.45;;;;;;;;;;5091092;28;20036;-77
2024/01/08 14:27:44;;;;;;;5.47;3.40;;;;;;;;;;5073701;28;20047;-77
2024/01/08 14:30:10;;;;;;;7.00;3.60;;;;;;;;;;5090238;28;20051;-77
2024/01/08 14:32:36;;;;;;;6.20;3.67;;;;;;;;;;5057004;28;20444;-77
2024/01/08 14:35:07;;;;;;;6.32;3.53;;;;;;;;;;5090006;28;20075;-77
2024/01/08 14:37:33;;;;;;;5.18;3.30;;;;;;;;;;5073797;28;20442;-77
2024/01/08 14:39:59;;;;;;;5.10;3.38;;;;;;;;;;5073461;28;20040;-76